sensor_id;sensor_type;location;lat;lon;timestamp;P1;durP1;ratioP1;P2;durP2;ratioP2
41305;SDS011;27051;50.376;19.152;2022-07-29T00:00:10;7.37;;;3.95;;
41305;SDS011;27051;50.376;19.152;2022-07-29T00:02:41;10.98;;;3.87;;
41305;SDS011;27051;50.376;19.152;2022-07-29T00:05:08;6.80;;;3.47;;
41305;SDS011;27051;50.376;19.152;2022-07-29T00:07:35;12.30;;;4.17;;
41305;SDS011;27051;50.376;19.152;2022-07-29T00:10:03;11.78;;;3.98;;
41305;SDS011;27051;50.376;19.152;2022-07-29T00:12:31;10.05;;;3.75;;
41305;SDS011;27051;50.376;19.152;2022-07-29T00:14:58;10.82;;;3.60;;
41305;SDS011;27051;50.376;19.152;2022-07-29T00:17:25;7.58;;;3.47;;
41305;SDS011;27051;50.376;19.152;2022-07-29T00:19:52;6.42;;;3.65;;
41305;SDS011;27051;50.376;19.152;2022-07-29T00:22:19;10.23;;;3.98;;
41305;SDS011;27051;50.376;19.152;2022-07-29T00:24:47;8.73;;;3.77;;
41305;SDS011;27051;50.376;19.152;2022-07-29T00:27:14;7.85;;;3.25;;
41305;SDS011;27051;50.376;19.152;2022-07-29T00:29:41;8.00;;;3.30;;
41305;SDS011;27051;50.376;19.152;2022-07-29T00:32:08;7.08;;;3.98;;
41305;SDS011;27051;50.376;19.152;2022-07-29T00:34:34;8.23;;;3.65;;
41305;SDS011;27051;50.376;19.152;2022-07-29T00:37:01;9.93;;;3.35;;
41305;SDS011;27051;50.376;19.152;2022-07-29T00:39:27;8.03;;;3.40;;
41305;SDS011;27051;50.376;19.152;2022-07-29T00:41:54;8.65;;;3.45;;
41305;SDS011;27051;50.376;19.152;2022-07-29T00:44:21;8.80;;;3.77;;
41305;SDS011;27051;50.376;19.152;2022-07-29T00:46:47;8.65;;;3.72;;
41305;SDS011;27051;50.376;19.152;2022-07-29T00:49:16;9.90;;;4.17;;
41305;SDS011;27051;50.376;19.152;2022-07-29T00:51:42;10.10;;;3.58;;
41305;SDS011;27051;50.376;19.152;2022-07-29T00:54:09;11.25;;;3.62;;
41305;SDS011;27051;50.376;19.152;2022-07-29T00:56:36;9.15;;;3.77;;
41305;SDS011;27051;50.376;19.152;2022-07-29T00:59:03;6.92;;;3.12;;
41305;SDS011;27051;50.376;19.152;2022-07-29T01:01:30;8.35;;;3.30;;
41305;SDS011;27051;50.376;19.152;2022-07-29T01:03:56;6.17;;;3.70;;
41305;SDS011;27051;50.376;19.152;2022-07-29T01:06:23;7.90;;;3.20;;
41305;SDS011;27051;50.376;19.152;2022-07-29T01:08:51;5.70;;;3.33;;
41305;SDS011;27051;50.376;19.152;2022-07-29T01:11:17;7.22;;;3.10;;
41305;SDS011;27051;50.376;19.152;2022-07-29T01:13:45;5.28;;;2.70;;
41305;SDS011;27051;50.376;19.152;2022-07-29T01:16:15;4.72;;;3.08;;
41305;SDS011;27051;50.376;19.152;2022-07-29T01:18:56;6.10;;;3.10;;
41305;SDS011;27051;50.376;19.152;2022-07-29T01:24:14;8.08;;;3.37;;
41305;SDS011;27051;50.376;19.152;2022-07-29T01:27:04;8.85;;;3.12;;
41305;SDS011;27051;50.376;19.152;2022-07-29T01:29:57;8.15;;;3.30;;
41305;SDS011;27051;50.376;19.152;2022-07-29T01:32:27;5.03;;;3.25;;
41305;SDS011;27051;50.376;19.152;2022-07-29T01:35:17;8.13;;;2.90;;
41305;SDS011;27051;50.376;19.152;2022-07-29T01:43:21;5.85;;;2.70;;
41305;SDS011;27051;50.376;19.152;2022-07-29T01:46:09;5.62;;;2.80;;
41305;SDS011;27051;50.376;19.152;2022-07-29T01:48:45;6.30;;;2.85;;
41305;SDS011;27051;50.376;19.152;2022-07-29T01:51:20;4.78;;;2.80;;
41305;SDS011;27051;50.376;19.152;2022-07-29T01:53:54;7.28;;;3.17;;
41305;SDS011;27051;50.376;19.152;2022-07-29T01:56:32;10.20;;;3.63;;
41305;SDS011;27051;50.376;19.152;2022-07-29T01:59:01;7.15;;;2.83;;
41305;SDS011;27051;50.376;19.152;2022-07-29T02:01:32;5.08;;;2.50;;
41305;SDS011;27051;50.376;19.152;2022-07-29T02:04:02;6.58;;;2.87;;
41305;SDS011;27051;50.376;19.152;2022-07-29T02:06:32;5.70;;;2.60;;
41305;SDS011;27051;50.376;19.152;2022-07-29T02:09:02;5.28;;;2.62;;
41305;SDS011;27051;50.376;19.152;2022-07-29T02:11:31;8.33;;;3.02;;
41305;SDS011;27051;50.376;19.152;2022-07-29T02:14:00;7.70;;;3.08;;
41305;SDS011;27051;50.376;19.152;2022-07-29T02:16:30;9.10;;;3.25;;
41305;SDS011;27051;50.376;19.152;2022-07-29T02:19:00;11.08;;;3.40;;
41305;SDS011;27051;50.376;19.152;2022-07-29T02:21:30;6.83;;;3.20;;
41305;SDS011;27051;50.376;19.152;2022-07-29T02:24:00;9.03;;;3.47;;
41305;SDS011;27051;50.376;19.152;2022-07-29T02:26:28;9.98;;;3.10;;
41305;SDS011;27051;50.376;19.152;2022-07-29T02:28:57;9.50;;;3.33;;
41305;SDS011;27051;50.376;19.152;2022-07-29T02:31:28;5.62;;;3.02;;
41305;SDS011;27051;50.376;19.152;2022-07-29T02:33:58;6.12;;;2.60;;
41305;SDS011;27051;50.376;19.152;2022-07-29T02:36:29;9.13;;;3.17;;
41305;SDS011;27051;50.376;19.152;2022-07-29T02:38:57;6.33;;;2.75;;
41305;SDS011;27051;50.376;19.152;2022-07-29T02:41:29;3.95;;;2.30;;
41305;SDS011;27051;50.376;19.152;2022-07-29T02:44:04;4.08;;;2.50;;
41305;SDS011;27051;50.376;19.152;2022-07-29T02:46:35;6.62;;;2.50;;
41305;SDS011;27051;50.376;19.152;2022-07-29T02:52:21;5.97;;;2.30;;
41305;SDS011;27051;50.376;19.152;2022-07-29T02:55:02;6.75;;;2.20;;
41305;SDS011;27051;50.376;19.152;2022-07-29T02:57:37;7.87;;;2.37;;
41305;SDS011;27051;50.376;19.152;2022-07-29T03:00:29;6.25;;;2.50;;
41305;SDS011;27051;50.376;19.152;2022-07-29T03:02:59;7.20;;;2.15;;
41305;SDS011;27051;50.376;19.152;2022-07-29T03:05:30;6.75;;;2.20;;
41305;SDS011;27051;50.376;19.152;2022-07-29T03:08:00;5.00;;;2.00;;
41305;SDS011;27051;50.376;19.152;2022-07-29T03:10:31;6.08;;;2.55;;
41305;SDS011;27051;50.376;19.152;2022-07-29T03:12:58;4.20;;;2.40;;
41305;SDS011;27051;50.376;19.152;2022-07-29T03:15:27;4.50;;;1.90;;
41305;SDS011;27051;50.376;19.152;2022-07-29T03:17:54;4.92;;;2.00;;
41305;SDS011;27051;50.376;19.152;2022-07-29T03:20:22;5.12;;;2.52;;
41305;SDS011;27051;50.376;19.152;2022-07-29T03:22:51;3.77;;;2.27;;
41305;SDS011;27051;50.376;19.152;2022-07-29T03:25:19;4.25;;;2.20;;
41305;SDS011;27051;50.376;19.152;2022-07-29T03:27:47;4.83;;;2.25;;
41305;SDS011;27051;50.376;19.152;2022-07-29T03:30:15;3.27;;;2.10;;
41305;SDS011;27051;50.376;19.152;2022-07-29T03:32:42;2.72;;;1.80;;
41305;SDS011;27051;50.376;19.152;2022-07-29T03:35:09;4.62;;;1.95;;
41305;SDS011;27051;50.376;19.152;2022-07-29T03:37:36;5.12;;;2.37;;
41305;SDS011;27051;50.376;19.152;2022-07-29T03:40:05;4.55;;;2.15;;
41305;SDS011;27051;50.376;19.152;2022-07-29T03:42:35;4.30;;;2.22;;
41305;SDS011;27051;50.376;19.152;2022-07-29T03:45:06;3.22;;;1.90;;
41305;SDS011;27051;50.376;19.152;2022-07-29T03:47:38;7.55;;;2.02;;
41305;SDS011;27051;50.376;19.152;2022-07-29T03:50:10;5.58;;;2.83;;
41305;SDS011;27051;50.376;19.152;2022-07-29T03:52:38;11.80;;;2.37;;
41305;SDS011;27051;50.376;19.152;2022-07-29T03:55:06;4.80;;;2.10;;
41305;SDS011;27051;50.376;19.152;2022-07-29T03:57:35;6.05;;;2.22;;
41305;SDS011;27051;50.376;19.152;2022-07-29T04:00:04;2.37;;;1.90;;
41305;SDS011;27051;50.376;19.152;2022-07-29T04:02:33;5.72;;;1.92;;
41305;SDS011;27051;50.376;19.152;2022-07-29T04:05:02;2.72;;;1.60;;
41305;SDS011;27051;50.376;19.152;2022-07-29T04:07:30;4.85;;;2.15;;
41305;SDS011;27051;50.376;19.152;2022-07-29T04:09:56;4.42;;;2.20;;
41305;SDS011;27051;50.376;19.152;2022-07-29T04:12:23;6.03;;;2.05;;
41305;SDS011;27051;50.376;19.152;2022-07-29T04:14:50;3.12;;;2.10;;
41305;SDS011;27051;50.376;19.152;2022-07-29T04:17:16;4.65;;;2.42;;
41305;SDS011;27051;50.376;19.152;2022-07-29T04:19:43;3.35;;;2.17;;
41305;SDS011;27051;50.376;19.152;2022-07-29T04:22:09;4.30;;;2.25;;
41305;SDS011;27051;50.376;19.152;2022-07-29T04:24:36;3.60;;;2.42;;
41305;SDS011;27051;50.376;19.152;2022-07-29T04:27:03;7.75;;;2.22;;
41305;SDS011;27051;50.376;19.152;2022-07-29T04:29:29;5.60;;;1.95;;
41305;SDS011;27051;50.376;19.152;2022-07-29T04:31:56;5.10;;;2.08;;
41305;SDS011;27051;50.376;19.152;2022-07-29T04:34:23;3.87;;;2.33;;
41305;SDS011;27051;50.376;19.152;2022-07-29T04:36:49;9.30;;;2.47;;
41305;SDS011;27051;50.376;19.152;2022-07-29T04:39:16;9.08;;;2.70;;
41305;SDS011;27051;50.376;19.152;2022-07-29T04:41:43;5.87;;;2.12;;
41305;SDS011;27051;50.376;19.152;2022-07-29T04:44:09;5.08;;;2.00;;
41305;SDS011;27051;50.376;19.152;2022-07-29T04:46:36;7.00;;;2.12;;
41305;SDS011;27051;50.376;19.152;2022-07-29T04:49:03;8.83;;;2.60;;
41305;SDS011;27051;50.376;19.152;2022-07-29T04:51:30;2.95;;;2.00;;
41305;SDS011;27051;50.376;19.152;2022-07-29T04:53:56;2.67;;;2.30;;
41305;SDS011;27051;50.376;19.152;2022-07-29T04:56:23;7.78;;;2.77;;
41305;SDS011;27051;50.376;19.152;2022-07-29T04:58:50;7.15;;;2.70;;
41305;SDS011;27051;50.376;19.152;2022-07-29T05:01:16;3.00;;;2.20;;
41305;SDS011;27051;50.376;19.152;2022-07-29T05:03:43;3.37;;;2.12;;
41305;SDS011;27051;50.376;19.152;2022-07-29T05:06:11;6.70;;;2.58;;
41305;SDS011;27051;50.376;19.152;2022-07-29T05:08:38;3.87;;;2.00;;
41305;SDS011;27051;50.376;19.152;2022-07-29T05:11:05;8.73;;;2.35;;
41305;SDS011;27051;50.376;19.152;2022-07-29T05:13:31;7.53;;;2.20;;
41305;SDS011;27051;50.376;19.152;2022-07-29T05:15:58;4.72;;;2.50;;
41305;SDS011;27051;50.376;19.152;2022-07-29T05:18:25;8.55;;;2.25;;
41305;SDS011;27051;50.376;19.152;2022-07-29T05:20:52;7.05;;;2.60;;
41305;SDS011;27051;50.376;19.152;2022-07-29T05:23:18;3.45;;;2.33;;
41305;SDS011;27051;50.376;19.152;2022-07-29T05:25:45;3.92;;;2.10;;
41305;SDS011;27051;50.376;19.152;2022-07-29T05:28:12;8.00;;;2.62;;
41305;SDS011;27051;50.376;19.152;2022-07-29T05:30:38;4.97;;;2.10;;
41305;SDS011;27051;50.376;19.152;2022-07-29T05:33:05;6.15;;;2.12;;
41305;SDS011;27051;50.376;19.152;2022-07-29T05:35:32;3.42;;;2.15;;
41305;SDS011;27051;50.376;19.152;2022-07-29T05:37:58;6.28;;;2.33;;
41305;SDS011;27051;50.376;19.152;2022-07-29T05:40:25;6.97;;;2.37;;
41305;SDS011;27051;50.376;19.152;2022-07-29T05:42:51;6.50;;;2.30;;
41305;SDS011;27051;50.376;19.152;2022-07-29T05:45:18;9.08;;;2.75;;
41305;SDS011;27051;50.376;19.152;2022-07-29T05:47:44;4.97;;;2.25;;
41305;SDS011;27051;50.376;19.152;2022-07-29T05:50:11;9.98;;;2.42;;
41305;SDS011;27051;50.376;19.152;2022-07-29T05:52:38;5.97;;;2.25;;
41305;SDS011;27051;50.376;19.152;2022-07-29T05:55:05;6.17;;;2.50;;
41305;SDS011;27051;50.376;19.152;2022-07-29T05:57:32;5.33;;;2.50;;
41305;SDS011;27051;50.376;19.152;2022-07-29T05:59:59;5.37;;;2.20;;
41305;SDS011;27051;50.376;19.152;2022-07-29T06:02:26;6.25;;;2.37;;
41305;SDS011;27051;50.376;19.152;2022-07-29T06:04:52;8.85;;;2.22;;
41305;SDS011;27051;50.376;19.152;2022-07-29T06:07:19;9.03;;;2.65;;
41305;SDS011;27051;50.376;19.152;2022-07-29T06:09:46;6.28;;;2.60;;
41305;SDS011;27051;50.376;19.152;2022-07-29T06:12:13;6.47;;;2.47;;
41305;SDS011;27051;50.376;19.152;2022-07-29T06:14:39;8.50;;;2.60;;
41305;SDS011;27051;50.376;19.152;2022-07-29T06:17:06;4.97;;;2.60;;
41305;SDS011;27051;50.376;19.152;2022-07-29T06:19:34;10.63;;;2.45;;
41305;SDS011;27051;50.376;19.152;2022-07-29T06:22:01;8.43;;;3.20;;
41305;SDS011;27051;50.376;19.152;2022-07-29T06:24:29;7.70;;;2.80;;
41305;SDS011;27051;50.376;19.152;2022-07-29T06:26:55;9.60;;;2.80;;
41305;SDS011;27051;50.376;19.152;2022-07-29T06:29:22;11.80;;;3.22;;
41305;SDS011;27051;50.376;19.152;2022-07-29T06:31:49;3.95;;;2.40;;
41305;SDS011;27051;50.376;19.152;2022-07-29T06:34:22;7.62;;;2.67;;
41305;SDS011;27051;50.376;19.152;2022-07-29T06:36:49;4.72;;;2.33;;
41305;SDS011;27051;50.376;19.152;2022-07-29T06:39:15;7.37;;;2.77;;
41305;SDS011;27051;50.376;19.152;2022-07-29T06:41:42;4.28;;;2.52;;
41305;SDS011;27051;50.376;19.152;2022-07-29T06:44:15;6.22;;;2.27;;
41305;SDS011;27051;50.376;19.152;2022-07-29T06:46:43;5.28;;;2.50;;
41305;SDS011;27051;50.376;19.152;2022-07-29T06:49:10;6.45;;;2.92;;
41305;SDS011;27051;50.376;19.152;2022-07-29T06:51:36;6.33;;;2.47;;
41305;SDS011;27051;50.376;19.152;2022-07-29T06:54:03;3.65;;;2.33;;
41305;SDS011;27051;50.376;19.152;2022-07-29T06:56:30;7.50;;;2.45;;
41305;SDS011;27051;50.376;19.152;2022-07-29T06:58:58;6.40;;;2.25;;
41305;SDS011;27051;50.376;19.152;2022-07-29T07:01:24;3.75;;;2.62;;
41305;SDS011;27051;50.376;19.152;2022-07-29T07:03:51;4.15;;;2.55;;
41305;SDS011;27051;50.376;19.152;2022-07-29T07:06:18;8.03;;;2.60;;
41305;SDS011;27051;50.376;19.152;2022-07-29T07:08:44;5.58;;;2.90;;
41305;SDS011;27051;50.376;19.152;2022-07-29T07:11:11;6.42;;;2.90;;
41305;SDS011;27051;50.376;19.152;2022-07-29T07:13:38;5.50;;;3.10;;
41305;SDS011;27051;50.376;19.152;2022-07-29T07:16:04;7.75;;;2.58;;
41305;SDS011;27051;50.376;19.152;2022-07-29T07:18:31;5.95;;;2.90;;
41305;SDS011;27051;50.376;19.152;2022-07-29T07:20:58;5.65;;;2.85;;
41305;SDS011;27051;50.376;19.152;2022-07-29T07:23:25;9.88;;;3.20;;
41305;SDS011;27051;50.376;19.152;2022-07-29T07:25:51;3.98;;;2.65;;
41305;SDS011;27051;50.376;19.152;2022-07-29T07:28:18;4.87;;;2.40;;
41305;SDS011;27051;50.376;19.152;2022-07-29T07:30:45;6.72;;;2.25;;
41305;SDS011;27051;50.376;19.152;2022-07-29T07:33:12;6.28;;;2.70;;
41305;SDS011;27051;50.376;19.152;2022-07-29T07:35:40;11.22;;;3.72;;
41305;SDS011;27051;50.376;19.152;2022-07-29T07:38:07;5.90;;;2.77;;
41305;SDS011;27051;50.376;19.152;2022-07-29T07:40:34;4.10;;;2.75;;
41305;SDS011;27051;50.376;19.152;2022-07-29T07:43:02;6.58;;;2.80;;
41305;SDS011;27051;50.376;19.152;2022-07-29T07:45:29;6.10;;;2.80;;
41305;SDS011;27051;50.376;19.152;2022-07-29T07:47:56;8.23;;;3.22;;
41305;SDS011;27051;50.376;19.152;2022-07-29T07:50:22;7.05;;;2.95;;
41305;SDS011;27051;50.376;19.152;2022-07-29T07:52:50;4.30;;;2.58;;
41305;SDS011;27051;50.376;19.152;2022-07-29T07:55:20;7.75;;;2.95;;
41305;SDS011;27051;50.376;19.152;2022-07-29T07:57:47;7.97;;;2.65;;
41305;SDS011;27051;50.376;19.152;2022-07-29T08:00:15;12.13;;;3.17;;
41305;SDS011;27051;50.376;19.152;2022-07-29T08:02:43;8.38;;;2.58;;
41305;SDS011;27051;50.376;19.152;2022-07-29T08:05:11;4.55;;;2.70;;
41305;SDS011;27051;50.376;19.152;2022-07-29T08:07:39;6.95;;;2.70;;
41305;SDS011;27051;50.376;19.152;2022-07-29T08:10:06;6.65;;;2.77;;
41305;SDS011;27051;50.376;19.152;2022-07-29T08:12:35;6.47;;;2.92;;
41305;SDS011;27051;50.376;19.152;2022-07-29T08:15:03;6.58;;;2.90;;
41305;SDS011;27051;50.376;19.152;2022-07-29T08:17:32;7.08;;;2.42;;
41305;SDS011;27051;50.376;19.152;2022-07-29T08:20:00;8.98;;;2.80;;
41305;SDS011;27051;50.376;19.152;2022-07-29T08:22:27;9.98;;;2.62;;
41305;SDS011;27051;50.376;19.152;2022-07-29T08:24:53;6.67;;;2.92;;
41305;SDS011;27051;50.376;19.152;2022-07-29T08:27:20;7.67;;;3.00;;
41305;SDS011;27051;50.376;19.152;2022-07-29T08:29:47;13.30;;;3.02;;
41305;SDS011;27051;50.376;19.152;2022-07-29T08:32:14;5.35;;;3.00;;
41305;SDS011;27051;50.376;19.152;2022-07-29T08:34:40;6.80;;;2.85;;
41305;SDS011;27051;50.376;19.152;2022-07-29T08:37:07;9.13;;;2.83;;
41305;SDS011;27051;50.376;19.152;2022-07-29T08:39:34;5.90;;;2.72;;
41305;SDS011;27051;50.376;19.152;2022-07-29T08:42:01;7.15;;;2.80;;
41305;SDS011;27051;50.376;19.152;2022-07-29T08:44:28;4.00;;;2.62;;
41305;SDS011;27051;50.376;19.152;2022-07-29T08:46:56;5.30;;;3.12;;
41305;SDS011;27051;50.376;19.152;2022-07-29T08:49:23;4.03;;;2.80;;
41305;SDS011;27051;50.376;19.152;2022-07-29T08:51:50;8.00;;;3.05;;
41305;SDS011;27051;50.376;19.152;2022-07-29T08:54:17;7.78;;;3.00;;
41305;SDS011;27051;50.376;19.152;2022-07-29T08:56:47;7.10;;;3.50;;
41305;SDS011;27051;50.376;19.152;2022-07-29T08:59:20;7.90;;;3.70;;
41305;SDS011;27051;50.376;19.152;2022-07-29T09:01:52;7.60;;;2.55;;
41305;SDS011;27051;50.376;19.152;2022-07-29T09:04:20;5.08;;;2.95;;
41305;SDS011;27051;50.376;19.152;2022-07-29T09:06:51;4.55;;;2.80;;
41305;SDS011;27051;50.376;19.152;2022-07-29T09:09:33;6.03;;;2.60;;
41305;SDS011;27051;50.376;19.152;2022-07-29T09:12:01;8.28;;;3.02;;
41305;SDS011;27051;50.376;19.152;2022-07-29T09:14:28;7.00;;;3.62;;
41305;SDS011;27051;50.376;19.152;2022-07-29T09:16:55;4.87;;;2.83;;
41305;SDS011;27051;50.376;19.152;2022-07-29T09:19:24;8.55;;;2.95;;
41305;SDS011;27051;50.376;19.152;2022-07-29T09:22:01;6.75;;;3.02;;
41305;SDS011;27051;50.376;19.152;2022-07-29T09:27:23;6.25;;;2.90;;
41305;SDS011;27051;50.376;19.152;2022-07-29T09:30:03;9.23;;;3.33;;
41305;SDS011;27051;50.376;19.152;2022-07-29T09:32:53;4.90;;;2.93;;
41305;SDS011;27051;50.376;19.152;2022-07-29T09:35:23;5.60;;;2.93;;
41305;SDS011;27051;50.376;19.152;2022-07-29T09:37:53;8.80;;;2.95;;
41305;SDS011;27051;50.376;19.152;2022-07-29T09:40:22;9.23;;;3.27;;
41305;SDS011;27051;50.376;19.152;2022-07-29T09:42:53;6.65;;;3.37;;
41305;SDS011;27051;50.376;19.152;2022-07-29T09:45:30;17.25;;;3.87;;
41305;SDS011;27051;50.376;19.152;2022-07-29T09:48:12;13.30;;;4.22;;
41305;SDS011;27051;50.376;19.152;2022-07-29T09:50:44;10.95;;;4.08;;
41305;SDS011;27051;50.376;19.152;2022-07-29T09:53:19;9.13;;;3.60;;
41305;SDS011;27051;50.376;19.152;2022-07-29T09:56:03;8.93;;;3.02;;
41305;SDS011;27051;50.376;19.152;2022-07-29T09:58:31;9.75;;;3.65;;
41305;SDS011;27051;50.376;19.152;2022-07-29T10:00:59;13.18;;;3.20;;
41305;SDS011;27051;50.376;19.152;2022-07-29T10:03:26;26.85;;;4.58;;
41305;SDS011;27051;50.376;19.152;2022-07-29T10:08:37;8.60;;;2.87;;
41305;SDS011;27051;50.376;19.152;2022-07-29T10:11:09;4.10;;;2.77;;
41305;SDS011;27051;50.376;19.152;2022-07-29T10:13:42;9.83;;;3.20;;
41305;SDS011;27051;50.376;19.152;2022-07-29T10:16:13;11.40;;;4.25;;
41305;SDS011;27051;50.376;19.152;2022-07-29T10:18:42;6.78;;;3.05;;
41305;SDS011;27051;50.376;19.152;2022-07-29T10:21:10;8.58;;;3.10;;
41305;SDS011;27051;50.376;19.152;2022-07-29T10:23:37;7.87;;;3.35;;
41305;SDS011;27051;50.376;19.152;2022-07-29T10:26:06;8.18;;;3.02;;
41305;SDS011;27051;50.376;19.152;2022-07-29T10:28:33;6.00;;;2.65;;
41305;SDS011;27051;50.376;19.152;2022-07-29T10:31:08;9.20;;;3.67;;
41305;SDS011;27051;50.376;19.152;2022-07-29T10:42:46;5.53;;;2.83;;
41305;SDS011;27051;50.376;19.152;2022-07-29T10:45:13;4.15;;;2.80;;
41305;SDS011;27051;50.376;19.152;2022-07-29T10:47:43;6.80;;;2.90;;
41305;SDS011;27051;50.376;19.152;2022-07-29T10:50:10;4.70;;;3.27;;
41305;SDS011;27051;50.376;19.152;2022-07-29T10:55:30;13.58;;;3.40;;
41305;SDS011;27051;50.376;19.152;2022-07-29T10:58:15;7.33;;;3.05;;
41305;SDS011;27051;50.376;19.152;2022-07-29T11:00:49;6.03;;;3.50;;
41305;SDS011;27051;50.376;19.152;2022-07-29T11:03:52;7.35;;;3.50;;
41305;SDS011;27051;50.376;19.152;2022-07-29T11:06:18;6.03;;;3.12;;
41305;SDS011;27051;50.376;19.152;2022-07-29T11:08:42;9.30;;;3.17;;
41305;SDS011;27051;50.376;19.152;2022-07-29T11:11:30;5.45;;;3.17;;
41305;SDS011;27051;50.376;19.152;2022-07-29T11:13:53;6.17;;;3.00;;
41305;SDS011;27051;50.376;19.152;2022-07-29T11:16:20;9.05;;;3.17;;
41305;SDS011;27051;50.376;19.152;2022-07-29T11:21:44;6.12;;;3.17;;
41305;SDS011;27051;50.376;19.152;2022-07-29T11:24:12;5.28;;;3.42;;
41305;SDS011;27051;50.376;19.152;2022-07-29T11:26:41;4.77;;;3.10;;
41305;SDS011;27051;50.376;19.152;2022-07-29T11:31:46;6.12;;;3.08;;
41305;SDS011;27051;50.376;19.152;2022-07-29T11:34:17;4.65;;;2.90;;
41305;SDS011;27051;50.376;19.152;2022-07-29T11:42:37;9.60;;;3.52;;
41305;SDS011;27051;50.376;19.152;2022-07-29T11:45:10;10.98;;;3.40;;
41305;SDS011;27051;50.376;19.152;2022-07-29T11:50:26;7.97;;;3.22;;
41305;SDS011;27051;50.376;19.152;2022-07-29T11:52:57;8.95;;;3.35;;
41305;SDS011;27051;50.376;19.152;2022-07-29T11:55:34;5.00;;;3.25;;
41305;SDS011;27051;50.376;19.152;2022-07-29T11:58:04;8.33;;;3.27;;
41305;SDS011;27051;50.376;19.152;2022-07-29T12:00:32;11.20;;;3.17;;
41305;SDS011;27051;50.376;19.152;2022-07-29T12:03:06;8.95;;;3.40;;
41305;SDS011;27051;50.376;19.152;2022-07-29T12:05:41;7.42;;;3.40;;
41305;SDS011;27051;50.376;19.152;2022-07-29T12:08:14;6.00;;;2.90;;
41305;SDS011;27051;50.376;19.152;2022-07-29T12:10:44;5.58;;;2.90;;
41305;SDS011;27051;50.376;19.152;2022-07-29T12:13:14;5.62;;;2.95;;
41305;SDS011;27051;50.376;19.152;2022-07-29T12:15:50;5.97;;;3.35;;
41305;SDS011;27051;50.376;19.152;2022-07-29T12:18:23;10.75;;;3.62;;
41305;SDS011;27051;50.376;19.152;2022-07-29T12:20:57;7.62;;;3.22;;
41305;SDS011;27051;50.376;19.152;2022-07-29T12:23:27;4.20;;;2.90;;
41305;SDS011;27051;50.376;19.152;2022-07-29T12:25:54;6.80;;;3.20;;
41305;SDS011;27051;50.376;19.152;2022-07-29T12:28:20;4.40;;;3.20;;
41305;SDS011;27051;50.376;19.152;2022-07-29T12:30:48;4.12;;;2.85;;
41305;SDS011;27051;50.376;19.152;2022-07-29T12:33:17;4.83;;;2.98;;
41305;SDS011;27051;50.376;19.152;2022-07-29T12:35:57;8.08;;;3.00;;
41305;SDS011;27051;50.376;19.152;2022-07-29T12:38:25;8.53;;;3.17;;
41305;SDS011;27051;50.376;19.152;2022-07-29T12:40:53;11.85;;;3.35;;
41305;SDS011;27051;50.376;19.152;2022-07-29T12:43:22;8.05;;;3.27;;
41305;SDS011;27051;50.376;19.152;2022-07-29T12:45:53;6.80;;;2.97;;
41305;SDS011;27051;50.376;19.152;2022-07-29T12:48:35;7.55;;;3.47;;
41305;SDS011;27051;50.376;19.152;2022-07-29T12:51:05;3.75;;;2.80;;
41305;SDS011;27051;50.376;19.152;2022-07-29T12:53:36;7.62;;;3.55;;
41305;SDS011;27051;50.376;19.152;2022-07-29T12:56:05;13.08;;;3.25;;
41305;SDS011;27051;50.376;19.152;2022-07-29T12:58:34;4.42;;;2.80;;
41305;SDS011;27051;50.376;19.152;2022-07-29T13:01:09;3.67;;;2.80;;
41305;SDS011;27051;50.376;19.152;2022-07-29T13:03:52;8.50;;;3.00;;
41305;SDS011;27051;50.376;19.152;2022-07-29T13:09:12;4.35;;;3.10;;
41305;SDS011;27051;50.376;19.152;2022-07-29T13:11:47;5.00;;;2.92;;
41305;SDS011;27051;50.376;19.152;2022-07-29T13:14:39;10.03;;;3.47;;
41305;SDS011;27051;50.376;19.152;2022-07-29T13:17:14;4.62;;;2.87;;
41305;SDS011;27051;50.376;19.152;2022-07-29T13:19:47;4.40;;;2.90;;
41305;SDS011;27051;50.376;19.152;2022-07-29T13:22:23;7.97;;;3.72;;
41305;SDS011;27051;50.376;19.152;2022-07-29T13:24:50;23.42;;;3.95;;
41305;SDS011;27051;50.376;19.152;2022-07-29T13:27:26;9.20;;;3.10;;
41305;SDS011;27051;50.376;19.152;2022-07-29T13:29:54;7.10;;;3.27;;
41305;SDS011;27051;50.376;19.152;2022-07-29T13:32:24;5.55;;;2.90;;
41305;SDS011;27051;50.376;19.152;2022-07-29T13:34:52;9.58;;;3.30;;
41305;SDS011;27051;50.376;19.152;2022-07-29T13:37:20;7.03;;;3.15;;
41305;SDS011;27051;50.376;19.152;2022-07-29T13:39:47;9.50;;;3.40;;
41305;SDS011;27051;50.376;19.152;2022-07-29T13:42:13;9.25;;;3.80;;
41305;SDS011;27051;50.376;19.152;2022-07-29T13:44:40;7.40;;;3.92;;
41305;SDS011;27051;50.376;19.152;2022-07-29T13:47:07;7.53;;;3.25;;
41305;SDS011;27051;50.376;19.152;2022-07-29T13:49:36;6.97;;;3.33;;
41305;SDS011;27051;50.376;19.152;2022-07-29T13:52:03;5.87;;;3.77;;
41305;SDS011;27051;50.376;19.152;2022-07-29T13:54:30;56.30;;;5.72;;
41305;SDS011;27051;50.376;19.152;2022-07-29T13:56:57;8.28;;;3.72;;
41305;SDS011;27051;50.376;19.152;2022-07-29T13:59:23;5.92;;;3.30;;
41305;SDS011;27051;50.376;19.152;2022-07-29T14:01:50;5.90;;;3.25;;
41305;SDS011;27051;50.376;19.152;2022-07-29T14:04:16;7.70;;;3.30;;
41305;SDS011;27051;50.376;19.152;2022-07-29T14:06:43;8.98;;;3.50;;
41305;SDS011;27051;50.376;19.152;2022-07-29T14:09:10;7.10;;;3.35;;
41305;SDS011;27051;50.376;19.152;2022-07-29T14:11:48;10.65;;;3.67;;
41305;SDS011;27051;50.376;19.152;2022-07-29T14:14:15;6.40;;;3.22;;
41305;SDS011;27051;50.376;19.152;2022-07-29T14:16:41;6.80;;;3.00;;
41305;SDS011;27051;50.376;19.152;2022-07-29T14:19:08;9.30;;;3.70;;
41305;SDS011;27051;50.376;19.152;2022-07-29T14:21:35;7.53;;;3.47;;
41305;SDS011;27051;50.376;19.152;2022-07-29T14:24:01;7.50;;;3.47;;
41305;SDS011;27051;50.376;19.152;2022-07-29T14:26:28;8.43;;;3.15;;
41305;SDS011;27051;50.376;19.152;2022-07-29T14:28:55;11.40;;;3.47;;
41305;SDS011;27051;50.376;19.152;2022-07-29T14:31:21;4.92;;;3.15;;
41305;SDS011;27051;50.376;19.152;2022-07-29T14:33:48;6.42;;;3.17;;
41305;SDS011;27051;50.376;19.152;2022-07-29T14:36:15;5.28;;;3.20;;
41305;SDS011;27051;50.376;19.152;2022-07-29T14:38:42;3.60;;;3.22;;
41305;SDS011;27051;50.376;19.152;2022-07-29T14:41:09;8.75;;;3.50;;
41305;SDS011;27051;50.376;19.152;2022-07-29T14:43:35;4.08;;;3.30;;
41305;SDS011;27051;50.376;19.152;2022-07-29T14:46:02;5.35;;;3.50;;
41305;SDS011;27051;50.376;19.152;2022-07-29T14:48:29;5.55;;;3.37;;
41305;SDS011;27051;50.376;19.152;2022-07-29T14:50:56;5.83;;;3.65;;
41305;SDS011;27051;50.376;19.152;2022-07-29T14:53:22;6.67;;;3.30;;
41305;SDS011;27051;50.376;19.152;2022-07-29T14:55:49;10.65;;;3.22;;
41305;SDS011;27051;50.376;19.152;2022-07-29T14:58:16;8.80;;;3.47;;
41305;SDS011;27051;50.376;19.152;2022-07-29T15:00:42;4.37;;;3.50;;
41305;SDS011;27051;50.376;19.152;2022-07-29T15:03:09;8.10;;;3.33;;
41305;SDS011;27051;50.376;19.152;2022-07-29T15:05:36;8.58;;;3.75;;
41305;SDS011;27051;50.376;19.152;2022-07-29T15:08:04;7.00;;;3.50;;
41305;SDS011;27051;50.376;19.152;2022-07-29T15:10:30;8.05;;;3.50;;
41305;SDS011;27051;50.376;19.152;2022-07-29T15:12:57;6.08;;;3.62;;
41305;SDS011;27051;50.376;19.152;2022-07-29T15:15:24;7.55;;;3.35;;
41305;SDS011;27051;50.376;19.152;2022-07-29T15:17:51;10.18;;;3.83;;
41305;SDS011;27051;50.376;19.152;2022-07-29T15:20:17;7.35;;;3.67;;
41305;SDS011;27051;50.376;19.152;2022-07-29T15:22:44;7.33;;;3.75;;
41305;SDS011;27051;50.376;19.152;2022-07-29T15:25:11;4.97;;;3.52;;
41305;SDS011;27051;50.376;19.152;2022-07-29T15:27:37;5.87;;;3.95;;
41305;SDS011;27051;50.376;19.152;2022-07-29T15:30:04;7.75;;;3.98;;